Nyk Meteor — 3ENA9 — position and weather

sailwx.info

Track history (hours):
 
Tides and Currents Weather Stations Pressure Air Temp Water Temp Dewpoint Dewpoint Depression Visibility Wind Speed Wind Dir Waves Ship Positions

Nyk Meteor

Last reported at 2018-Jun-25 08:00 UTC. Time now 2018-Jun-25 08:21 UTC.
Position N 37°01' W 122°36'.

Length 294 m; draft 10.9 m.

Type: Cargo ship. MMSI: 354212000.

Date/timePositionNaut miles runAvg speedWind from/ knotsBaromVisibWave heightAir tempDewpointWater temp
2018-Jun-25 08:00N 37°01' W 122°36'612.2
2018-Jun-25 07:30N 36°56' W 122°34'913.0
2018-Jun-25 06:48N 36°47' W 122°30'514.1
2018-Jun-25 06:25N 36°42' W 122°28'613.5
2018-Jun-25 06:00N 36°37' W 122°25'713.2
2018-Jun-25 05:30N 36°31' W 122°22'713.0
2018-Jun-25 05:00N 36°25' W 122°19'713.1
2018-Jun-25 04:30N 36°19' W 122°16'613.0
2018-Jun-25 04:00N 36°13' W 122°13'612.7
2018-Jun-25 03:30N 36°07' W 122°10'612.4
2018-Jun-25 03:00N 36°01' W 122°07'612.6
2018-Jun-25 02:30N 35°55' W 122°03'612.4
2018-Jun-25 02:00N 35°50' W 122°00'612.6
2018-Jun-25 01:30N 35°44' W 121°57'712.9
2018-Jun-25 01:00N 35°39' W 121°52'713.3
2018-Jun-25 00:30N 35°34' W 121°47'713.5
2018-Jun-25 00:00N 35°29' W 121°41'1013.4
2018-Jun-24 23:16N 35°21' W 121°33'413.1
2018-Jun-24 23:00N 35°19' W 121°30'5 9.6
2018-Jun-24 22:30N 35°15' W 121°27'1 1.4
2018-Jun-24 22:00N 35°14' W 121°26'1 1.3
2018-Jun-24 21:30N 35°14' W 121°26'1 1.2
2018-Jun-24 21:00N 35°13' W 121°26'1 1.1
2018-Jun-24 20:30N 35°13' W 121°26'1 1.1
2018-Jun-24 20:00N 35°12' W 121°27'0 0.9
2018-Jun-24 19:30N 35°12' W 121°27'0 0.6
2018-Jun-24 19:00N 35°12' W 121°28'1 1.5
2018-Jun-24 18:29N 35°12' W 121°28'1 1.3
2018-Jun-24 18:00N 35°11' W 121°29'1 1.1
2018-Jun-24 17:25N 35°11' W 121°29'511.0
2018-Jun-24 16:59N 35°07' W 121°26'613.6
2018-Jun-24 16:30N 35°01' W 121°21'713.6
2018-Jun-24 16:00N 34°56' W 121°16'713.4
2018-Jun-24 15:30N 34°50' W 121°12'713.3
2018-Jun-24 15:00N 34°45' W 121°07'713.5
2018-Jun-24 14:30N 34°39' W 121°02'713.6
2018-Jun-24 14:00N 34°33' W 120°58'714.1
2018-Jun-24 13:30N 34°28' W 120°53'713.9
2018-Jun-24 13:00N 34°25' W 120°45'713.9
2018-Jun-24 12:30N 34°23' W 120°37'714.2
2018-Jun-24 12:00N 34°21' W 120°29'713.9
2018-Jun-24 11:30N 34°19' W 120°21'913.6
2018-Jun-24 10:50N 34°17' W 120°10'513.4
2018-Jun-24 10:27N 34°16' W 120°04'613.2
2018-Jun-24 10:00N 34°14' W 119°57'712.9
2018-Jun-24 09:27N 34°12' W 119°49'614.0
2018-Jun-24 08:59N 34°10' W 119°41'814.7
2018-Jun-24 08:29N 34°09' W 119°32'713.4
2018-Jun-24 07:58N 34°07' W 119°24'613.6
2018-Jun-24 07:30N 34°05' W 119°17'712.7
2018-Jun-24 06:57N 34°02' W 119°09'510.2
2018-Jun-24 06:27N 33°59' W 119°04'510.4
2018-Jun-24 05:59N 33°57' W 118°59'610.6
2018-Jun-24 05:27N 33°54' W 118°53'510.3
2018-Jun-24 05:00N 33°52' W 118°48'511.2
2018-Jun-24 04:30N 33°49' W 118°43'611.8
2018-Jun-24 03:57N 33°46' W 118°36'611.9
2018-Jun-24 03:28N 33°43' W 118°30'611.7
2018-Jun-24 02:59N 33°40' W 118°24'511.1
2018-Jun-24 02:30N 33°39' W 118°18'5 9.4
2018-Jun-24 02:00N 33°42' W 118°14'3 6.3
2018-Jun-24 01:30N 33°44' W 118°17'1 2.4
2018-Jun-24 00:59N 33°46' W 118°17'0 0.1
2018-Jun-24 00:29N 33°46' W 118°17'0 0.0
2018-Jun-23 23:59N 33°46' W 118°17'0 0.0
2018-Jun-23 23:29N 33°46' W 118°17'0 0.0
2018-Jun-23 22:56N 33°46' W 118°17'0 0.0
2018-Jun-23 22:29N 33°46' W 118°17'0 0.0
2018-Jun-23 21:59N 33°46' W 118°17'0 0.0
2018-Jun-23 21:29N 33°46' W 118°17'0 0.0
2018-Jun-23 20:59N 33°46' W 118°17'0 0.0
2018-Jun-23 20:29N 33°46' W 118°17'0 0.0
2018-Jun-23 19:59N 33°46' W 118°17'0 0.0
2018-Jun-23 19:29N 33°46' W 118°17'0 0.0
2018-Jun-23 18:59N 33°46' W 118°17'0 0.0
2018-Jun-23 18:26N 33°46' W 118°17'0 0.0
2018-Jun-23 17:59N 33°46' W 118°17'0 0.0
2018-Jun-23 17:29N 33°46' W 118°17'0 0.0
2018-Jun-23 16:59N 33°46' W 118°17'0 0.0
2018-Jun-23 16:29N 33°46' W 118°17'0 0.0
2018-Jun-23 15:59N 33°46' W 118°17'0 0.0
2018-Jun-23 15:26N 33°46' W 118°17'0 0.0
2018-Jun-23 14:59N 33°46' W 118°17'0 0.0
2018-Jun-23 14:29N 33°46' W 118°17'0 0.0
2018-Jun-23 13:59N 33°46' W 118°17'0 0.0
2018-Jun-23 13:29N 33°46' W 118°17'0 0.0
2018-Jun-23 12:59N 33°46' W 118°17'0 0.0
2018-Jun-23 12:29N 33°46' W 118°17'0 0.0
2018-Jun-23 11:59N 33°46' W 118°17'0 0.0
2018-Jun-23 11:29N 33°46' W 118°17'0 0.0
2018-Jun-23 10:59N 33°46' W 118°17'0 0.0
2018-Jun-23 10:29N 33°46' W 118°17'0 0.0
2018-Jun-23 09:59N 33°46' W 118°17'0 0.0
2018-Jun-23 09:29N 33°46' W 118°17'0 0.0
2018-Jun-23 08:59N 33°46' W 118°17'0 0.0
2018-Jun-23 08:29N 33°46' W 118°17'0 0.0
2018-Jun-23 07:59N 33°46' W 118°17'0 0.0
2018-Jun-23 07:29N 33°46' W 118°17'0 0.0
2018-Jun-23 06:59N 33°46' W 118°17'0 0.0
2018-Jun-23 06:26N 33°46' W 118°17'0 0.0
2018-Jun-23 05:59N 33°46' W 118°17'0 0.0
2018-Jun-23 05:29N 33°46' W 118°17'0 0.0
2018-Jun-23 04:59N 33°46' W 118°17'0 0.0
2018-Jun-23 04:29N 33°46' W 118°17'0 0.0
2018-Jun-23 03:59N 33°46' W 118°17'0 0.0
2018-Jun-23 03:29N 33°46' W 118°17'0 0.0
2018-Jun-23 02:59N 33°46' W 118°17'0 0.0
2018-Jun-23 02:29N 33°46' W 118°17'0 0.0
2018-Jun-23 01:59N 33°46' W 118°17'0 0.0
2018-Jun-23 01:29N 33°46' W 118°17'0 0.0
2018-Jun-23 00:59N 33°46' W 118°17'0 0.0
2018-Jun-23 00:29N 33°46' W 118°17'0 0.0
2018-Jun-22 23:59N 33°46' W 118°17'0 0.0
2018-Jun-22 23:29N 33°46' W 118°17'0 0.0
2018-Jun-22 22:59N 33°46' W 118°17'0 0.0
2018-Jun-22 22:29N 33°46' W 118°17'0 0.0
2018-Jun-22 21:59N 33°46' W 118°17'0 0.0
2018-Jun-22 21:29N 33°46' W 118°17'0 0.0
2018-Jun-22 20:59N 33°46' W 118°17'0 0.0
2018-Jun-22 20:26N 33°46' W 118°17'0 0.0
2018-Jun-22 19:59N 33°46' W 118°17'0 0.0
2018-Jun-22 19:29N 33°46' W 118°17'0 0.0
2018-Jun-22 18:59N 33°46' W 118°17'0 0.0
2018-Jun-22 18:29N 33°46' W 118°17'0 0.0
2018-Jun-22 17:59N 33°46' W 118°17'0 0.0
2018-Jun-22 17:29N 33°46' W 118°17'0 0.0
2018-Jun-22 16:59N 33°46' W 118°17'0 0.0
2018-Jun-22 16:29N 33°46' W 118°17'0 0.0
2018-Jun-22 15:56N 33°46' W 118°17'0 0.0
2018-Jun-22 15:29N 33°46' W 118°17'0 0.0
2018-Jun-22 14:59N 33°46' W 118°17'0 0.0
2018-Jun-22 14:29N 33°46' W 118°17'0 0.0
2018-Jun-22 13:59N 33°46' W 118°17'0 0.0
2018-Jun-22 13:29N 33°46' W 118°17'0 0.0
2018-Jun-22 12:59N 33°46' W 118°17'0 0.0
2018-Jun-22 12:29N 33°46' W 118°17'0 0.0
2018-Jun-22 11:59N 33°46' W 118°17'0 0.0
2018-Jun-22 11:29N 33°46' W 118°17'0 0.0
2018-Jun-22 11:00N 33°46' W 118°17'1 2.7
2018-Jun-22 10:30N 33°44' W 118°17'3 6.6
2018-Jun-22 10:01N 33°42' W 118°14'4 7.8
2018-Jun-22 09:30N 33°38' W 118°13'4 8.0
2018-Jun-22 09:01N 33°35' W 118°09'5 9.7
2018-Jun-22 08:30N 33°31' W 118°08'510.1
2018-Jun-22 08:00N 33°26' W 118°05'610.5
2018-Jun-22 07:28N 33°21' W 118°02'4 9.2
2018-Jun-22 07:00N 33°17' W 118°02'5 9.1
2018-Jun-22 06:26N 33°12' W 118°00'410.1
2018-Jun-22 06:00N 33°07' W 117°59'510.5
2018-Jun-22 05:30N 33°02' W 117°57'510.4
2018-Jun-22 05:00N 32°57' W 117°56'711.6
2018-Jun-22 04:24N 32°50' W 117°54'512.2
2018-Jun-22 04:00N 32°46' W 117°52'713.3
2018-Jun-22 03:31N 32°39' W 117°50'713.4
2018-Jun-22 03:00N 32°33' W 117°48'613.2
2018-Jun-22 02:30N 32°27' W 117°46'713.4
2018-Jun-22 02:00N 32°20' W 117°43'713.3
2018-Jun-22 01:29N 32°14' W 117°41'2013.2
2018-Jun-22 00:00N 31°55' W 117°33'813.2
2018-Jun-21 23:23N 31°47' W 117°30'513.2
2018-Jun-21 23:01N 31°42' W 117°29'2313.0
2018-Jun-21 21:13N 31°20' W 117°21'2812.7
2018-Jun-21 19:00N 30°53' W 117°12'14713.6
2018-Jun-21 08:10N 28°34' W 116°17'614.1
2018-Jun-21 07:47N 28°29' W 116°14'414.0
2018-Jun-21 07:30N 28°26' W 116°12'  
Track history (hours):
 
Tides and Currents Weather Stations Pressure Air Temp Water Temp Dewpoint Dewpoint Depression Visibility Wind Speed Wind Dir Waves Ship Positions

Nyk Meteor

Last reported at 2018-Jun-25 08:00 UTC. Time now 2018-Jun-25 08:21 UTC.
Position N 37°01' W 122°36'.

Length 294 m; draft 10.9 m.

Type: Cargo ship. MMSI: 354212000.

Date/timePositionNaut miles runAvg speedWind from/ knotsBaromVisibWave heightAir tempDewpointWater temp
2018-Jun-25 08:00N 37°01' W 122°36'612.2
2018-Jun-25 07:30N 36°56' W 122°34'913.0
2018-Jun-25 06:48N 36°47' W 122°30'514.1
2018-Jun-25 06:25N 36°42' W 122°28'613.5
2018-Jun-25 06:00N 36°37' W 122°25'713.2
2018-Jun-25 05:30N 36°31' W 122°22'713.0
2018-Jun-25 05:00N 36°25' W 122°19'713.1
2018-Jun-25 04:30N 36°19' W 122°16'613.0
2018-Jun-25 04:00N 36°13' W 122°13'612.7
2018-Jun-25 03:30N 36°07' W 122°10'612.4
2018-Jun-25 03:00N 36°01' W 122°07'612.6
2018-Jun-25 02:30N 35°55' W 122°03'612.4
2018-Jun-25 02:00N 35°50' W 122°00'612.6
2018-Jun-25 01:30N 35°44' W 121°57'712.9
2018-Jun-25 01:00N 35°39' W 121°52'713.3
2018-Jun-25 00:30N 35°34' W 121°47'713.5
2018-Jun-25 00:00N 35°29' W 121°41'1013.4
2018-Jun-24 23:16N 35°21' W 121°33'413.1
2018-Jun-24 23:00N 35°19' W 121°30'5 9.6
2018-Jun-24 22:30N 35°15' W 121°27'1 1.4
2018-Jun-24 22:00N 35°14' W 121°26'1 1.3
2018-Jun-24 21:30N 35°14' W 121°26'1 1.2
2018-Jun-24 21:00N 35°13' W 121°26'1 1.1
2018-Jun-24 20:30N 35°13' W 121°26'1 1.1
2018-Jun-24 20:00N 35°12' W 121°27'0 0.9
2018-Jun-24 19:30N 35°12' W 121°27'0 0.6
2018-Jun-24 19:00N 35°12' W 121°28'1 1.5
2018-Jun-24 18:29N 35°12' W 121°28'1 1.3
2018-Jun-24 18:00N 35°11' W 121°29'1 1.1
2018-Jun-24 17:25N 35°11' W 121°29'511.0
2018-Jun-24 16:59N 35°07' W 121°26'613.6
2018-Jun-24 16:30N 35°01' W 121°21'713.6
2018-Jun-24 16:00N 34°56' W 121°16'713.4
2018-Jun-24 15:30N 34°50' W 121°12'713.3
2018-Jun-24 15:00N 34°45' W 121°07'713.5
2018-Jun-24 14:30N 34°39' W 121°02'713.6
2018-Jun-24 14:00N 34°33' W 120°58'714.1
2018-Jun-24 13:30N 34°28' W 120°53'713.9
2018-Jun-24 13:00N 34°25' W 120°45'713.9
2018-Jun-24 12:30N 34°23' W 120°37'714.2
2018-Jun-24 12:00N 34°21' W 120°29'713.9
2018-Jun-24 11:30N 34°19' W 120°21'913.6
2018-Jun-24 10:50N 34°17' W 120°10'513.4
2018-Jun-24 10:27N 34°16' W 120°04'613.2
2018-Jun-24 10:00N 34°14' W 119°57'712.9
2018-Jun-24 09:27N 34°12' W 119°49'614.0
2018-Jun-24 08:59N 34°10' W 119°41'814.7
2018-Jun-24 08:29N 34°09' W 119°32'713.4
2018-Jun-24 07:58N 34°07' W 119°24'613.6
2018-Jun-24 07:30N 34°05' W 119°17'712.7
2018-Jun-24 06:57N 34°02' W 119°09'510.2
2018-Jun-24 06:27N 33°59' W 119°04'510.4
2018-Jun-24 05:59N 33°57' W 118°59'610.6
2018-Jun-24 05:27N 33°54' W 118°53'510.3
2018-Jun-24 05:00N 33°52' W 118°48'511.2
2018-Jun-24 04:30N 33°49' W 118°43'611.8
2018-Jun-24 03:57N 33°46' W 118°36'611.9
2018-Jun-24 03:28N 33°43' W 118°30'611.7
2018-Jun-24 02:59N 33°40' W 118°24'511.1
2018-Jun-24 02:30N 33°39' W 118°18'5 9.4
2018-Jun-24 02:00N 33°42' W 118°14'3 6.3
2018-Jun-24 01:30N 33°44' W 118°17'1 2.4
2018-Jun-24 00:59N 33°46' W 118°17'0 0.1
2018-Jun-24 00:29N 33°46' W 118°17'0 0.0
2018-Jun-23 23:59N 33°46' W 118°17'0 0.0
2018-Jun-23 23:29N 33°46' W 118°17'0 0.0
2018-Jun-23 22:56N 33°46' W 118°17'0 0.0
2018-Jun-23 22:29N 33°46' W 118°17'0 0.0
2018-Jun-23 21:59N 33°46' W 118°17'0 0.0
2018-Jun-23 21:29N 33°46' W 118°17'0 0.0
2018-Jun-23 20:59N 33°46' W 118°17'0 0.0
2018-Jun-23 20:29N 33°46' W 118°17'0 0.0
2018-Jun-23 19:59N 33°46' W 118°17'0 0.0
2018-Jun-23 19:29N 33°46' W 118°17'0 0.0
2018-Jun-23 18:59N 33°46' W 118°17'0 0.0
2018-Jun-23 18:26N 33°46' W 118°17'0 0.0
2018-Jun-23 17:59N 33°46' W 118°17'0 0.0
2018-Jun-23 17:29N 33°46' W 118°17'0 0.0
2018-Jun-23 16:59N 33°46' W 118°17'0 0.0
2018-Jun-23 16:29N 33°46' W 118°17'0 0.0
2018-Jun-23 15:59N 33°46' W 118°17'0 0.0
2018-Jun-23 15:26N 33°46' W 118°17'0 0.0
2018-Jun-23 14:59N 33°46' W 118°17'0 0.0
2018-Jun-23 14:29N 33°46' W 118°17'0 0.0
2018-Jun-23 13:59N 33°46' W 118°17'0 0.0
2018-Jun-23 13:29N 33°46' W 118°17'0 0.0
2018-Jun-23 12:59N 33°46' W 118°17'0 0.0
2018-Jun-23 12:29N 33°46' W 118°17'0 0.0
2018-Jun-23 11:59N 33°46' W 118°17'0 0.0
2018-Jun-23 11:29N 33°46' W 118°17'0 0.0
2018-Jun-23 10:59N 33°46' W 118°17'0 0.0
2018-Jun-23 10:29N 33°46' W 118°17'0 0.0
2018-Jun-23 09:59N 33°46' W 118°17'0 0.0
2018-Jun-23 09:29N 33°46' W 118°17'0 0.0
2018-Jun-23 08:59N 33°46' W 118°17'0 0.0
2018-Jun-23 08:29N 33°46' W 118°17'0 0.0
2018-Jun-23 07:59N 33°46' W 118°17'0 0.0
2018-Jun-23 07:29N 33°46' W 118°17'0 0.0
2018-Jun-23 06:59N 33°46' W 118°17'0 0.0
2018-Jun-23 06:26N 33°46' W 118°17'0 0.0
2018-Jun-23 05:59N 33°46' W 118°17'0 0.0
2018-Jun-23 05:29N 33°46' W 118°17'0 0.0
2018-Jun-23 04:59N 33°46' W 118°17'0 0.0
2018-Jun-23 04:29N 33°46' W 118°17'0 0.0
2018-Jun-23 03:59N 33°46' W 118°17'0 0.0
2018-Jun-23 03:29N 33°46' W 118°17'0 0.0
2018-Jun-23 02:59N 33°46' W 118°17'0 0.0
2018-Jun-23 02:29N 33°46' W 118°17'0 0.0
2018-Jun-23 01:59N 33°46' W 118°17'0 0.0
2018-Jun-23 01:29N 33°46' W 118°17'0 0.0
2018-Jun-23 00:59N 33°46' W 118°17'0 0.0
2018-Jun-23 00:29N 33°46' W 118°17'0 0.0
2018-Jun-22 23:59N 33°46' W 118°17'0 0.0
2018-Jun-22 23:29N 33°46' W 118°17'0 0.0
2018-Jun-22 22:59N 33°46' W 118°17'0 0.0
2018-Jun-22 22:29N 33°46' W 118°17'0 0.0
2018-Jun-22 21:59N 33°46' W 118°17'0 0.0
2018-Jun-22 21:29N 33°46' W 118°17'0 0.0
2018-Jun-22 20:59N 33°46' W 118°17'0 0.0
2018-Jun-22 20:26N 33°46' W 118°17'0 0.0
2018-Jun-22 19:59N 33°46' W 118°17'0 0.0
2018-Jun-22 19:29N 33°46' W 118°17'0 0.0
2018-Jun-22 18:59N 33°46' W 118°17'0 0.0
2018-Jun-22 18:29N 33°46' W 118°17'0 0.0
2018-Jun-22 17:59N 33°46' W 118°17'0 0.0
2018-Jun-22 17:29N 33°46' W 118°17'0 0.0
2018-Jun-22 16:59N 33°46' W 118°17'0 0.0
2018-Jun-22 16:29N 33°46' W 118°17'0 0.0
2018-Jun-22 15:56N 33°46' W 118°17'0 0.0
2018-Jun-22 15:29N 33°46' W 118°17'0 0.0
2018-Jun-22 14:59N 33°46' W 118°17'0 0.0
2018-Jun-22 14:29N 33°46' W 118°17'0 0.0
2018-Jun-22 13:59N 33°46' W 118°17'0 0.0
2018-Jun-22 13:29N 33°46' W 118°17'0 0.0
2018-Jun-22 12:59N 33°46' W 118°17'0 0.0
2018-Jun-22 12:29N 33°46' W 118°17'0 0.0
2018-Jun-22 11:59N 33°46' W 118°17'0 0.0
2018-Jun-22 11:29N 33°46' W 118°17'0 0.0
2018-Jun-22 11:00N 33°46' W 118°17'1 2.7
2018-Jun-22 10:30N 33°44' W 118°17'3 6.6
2018-Jun-22 10:01N 33°42' W 118°14'4 7.8
2018-Jun-22 09:30N 33°38' W 118°13'4 8.0
2018-Jun-22 09:01N 33°35' W 118°09'5 9.7
2018-Jun-22 08:30N 33°31' W 118°08'510.1
2018-Jun-22 08:00N 33°26' W 118°05'610.5
2018-Jun-22 07:28N 33°21' W 118°02'4 9.2
2018-Jun-22 07:00N 33°17' W 118°02'5 9.1
2018-Jun-22 06:26N 33°12' W 118°00'410.1
2018-Jun-22 06:00N 33°07' W 117°59'510.5
2018-Jun-22 05:30N 33°02' W 117°57'510.4
2018-Jun-22 05:00N 32°57' W 117°56'711.6
2018-Jun-22 04:24N 32°50' W 117°54'512.2
2018-Jun-22 04:00N 32°46' W 117°52'713.3
2018-Jun-22 03:31N 32°39' W 117°50'713.4
2018-Jun-22 03:00N 32°33' W 117°48'613.2
2018-Jun-22 02:30N 32°27' W 117°46'713.4
2018-Jun-22 02:00N 32°20' W 117°43'713.3
2018-Jun-22 01:29N 32°14' W 117°41'2013.2
2018-Jun-22 00:00N 31°55' W 117°33'813.2
2018-Jun-21 23:23N 31°47' W 117°30'513.2
2018-Jun-21 23:01N 31°42' W 117°29'2313.0
2018-Jun-21 21:13N 31°20' W 117°21'2812.7
2018-Jun-21 19:00N 30°53' W 117°12'14713.6
2018-Jun-21 08:10N 28°34' W 116°17'614.1
2018-Jun-21 07:47N 28°29' W 116°14'414.0
2018-Jun-21 07:30N 28°26' W 116°12'  

Dump ship's entire track history